createdAt,value
2022-10-29T00:01:00.816Z,2.90
2022-10-29T00:02:03.673Z,3.08
2022-10-29T00:03:05.437Z,2.65
2022-10-29T00:04:07.035Z,3.22
2022-10-29T00:05:08.906Z,3.45
2022-10-29T00:06:11.878Z,2.88
2022-10-29T00:07:13.336Z,2.78
2022-10-29T00:08:14.759Z,3.25
2022-10-29T00:09:16.183Z,2.97
2022-10-29T00:10:17.604Z,3.25
2022-10-29T00:11:20.966Z,3.30
2022-10-29T00:12:22.596Z,3.63
2022-10-29T00:13:24.013Z,3.42
2022-10-29T00:14:25.480Z,3.33
2022-10-29T00:15:26.905Z,3.20
2022-10-29T00:16:29.964Z,3.20
2022-10-29T00:17:33.882Z,3.28
2022-10-29T00:18:35.740Z,3.33
2022-10-29T00:19:37.228Z,2.75
2022-10-29T00:20:38.684Z,3.70
2022-10-29T00:21:40.160Z,3.10
2022-10-29T00:22:41.636Z,3.45
2022-10-29T00:23:43.167Z,3.72
2022-10-29T00:24:44.586Z,3.60
2022-10-29T00:25:46.019Z,3.35
2022-10-29T00:26:47.454Z,3.80
2022-10-29T00:27:48.899Z,3.25
2022-10-29T00:28:52.397Z,3.55
2022-10-29T00:29:53.814Z,3.40
2022-10-29T00:30:55.393Z,3.70
2022-10-29T00:31:56.890Z,3.20
2022-10-29T00:32:59.712Z,3.45
2022-10-29T00:34:01.475Z,3.67
2022-10-29T00:35:02.997Z,3.20
2022-10-29T00:36:07.103Z,3.83
2022-10-29T00:37:08.558Z,2.90
2022-10-29T00:38:09.981Z,3.85
2022-10-29T00:39:13.209Z,3.90
2022-10-29T00:40:14.794Z,3.75
2022-10-29T00:41:18.469Z,3.70
2022-10-29T00:42:19.895Z,4.28
2022-10-29T00:43:23.609Z,3.85
2022-10-29T00:44:29.443Z,4.07
2022-10-29T00:45:30.875Z,3.70
2022-10-29T00:46:35.433Z,3.95
2022-10-29T00:47:37.818Z,3.70
2022-10-29T00:48:45.947Z,4.95
2022-10-29T00:49:49.913Z,4.35
2022-10-29T00:50:53.337Z,4.50
2022-10-29T00:51:55.114Z,3.92
2022-10-29T00:52:57.711Z,3.95
2022-10-29T00:54:02.322Z,4.00
2022-10-29T00:55:07.341Z,4.28
2022-10-29T00:56:09.053Z,4.65
2022-10-29T00:57:15.016Z,5.07
2022-10-29T00:58:16.866Z,4.10
2022-10-29T00:59:18.683Z,4.20
2022-10-29T01:00:21.512Z,5.03
2022-10-29T01:01:23.015Z,3.95
2022-10-29T01:02:25.132Z,3.92
2022-10-29T01:03:26.653Z,4.50
2022-10-29T01:04:30.711Z,4.32
2022-10-29T01:05:35.060Z,4.13
2022-10-29T01:06:37.405Z,3.83
2022-10-29T01:07:39.477Z,4.22
2022-10-29T01:08:40.881Z,3.90
2022-10-29T01:09:42.384Z,4.75
2022-10-29T01:10:59.656Z,4.00
2022-10-29T01:12:18.554Z,3.83
2022-10-29T01:13:37.303Z,4.20
2022-10-29T01:14:50.190Z,4.40
2022-10-29T01:16:03.291Z,4.32
2022-10-29T01:17:15.921Z,4.13
2022-10-29T01:18:23.125Z,4.03
2022-10-29T01:19:53.475Z,3.53
2022-10-29T01:21:37.759Z,3.63
2022-10-29T01:22:43.810Z,3.78
2022-10-29T01:24:16.455Z,3.58
2022-10-29T01:25:40.039Z,3.47
2022-10-29T01:27:05.541Z,4.00
2022-10-29T01:28:24.928Z,3.80
2022-10-29T01:29:43.120Z,3.75
2022-10-29T01:31:13.750Z,3.85
2022-10-29T01:32:20.034Z,4.03
2022-10-29T01:33:27.366Z,4.03
2022-10-29T01:34:38.644Z,3.95
2022-10-29T01:35:48.848Z,4.40
2022-10-29T01:36:57.247Z,4.18
2022-10-29T01:38:09.748Z,3.75
2022-10-29T01:39:20.720Z,3.67
2022-10-29T01:40:26.546Z,3.90
2022-10-29T01:41:41.896Z,4.30
2022-10-29T01:42:49.607Z,3.38
2022-10-29T01:43:55.375Z,4.13
2022-10-29T01:45:03.616Z,3.70
2022-10-29T01:46:12.415Z,3.78
2022-10-29T01:47:16.683Z,3.60
2022-10-29T01:48:22.358Z,3.58
2022-10-29T01:49:28.514Z,4.07
2022-10-29T01:50:30.350Z,3.55
2022-10-29T01:51:35.593Z,4.05
2022-10-29T01:52:38.987Z,4.38
2022-10-29T01:53:40.501Z,4.43
2022-10-29T01:54:42.307Z,4.65
2022-10-29T01:55:43.732Z,4.50
2022-10-29T01:56:53.715Z,4.18
2022-10-29T01:57:55.952Z,3.92
2022-10-29T01:58:59.991Z,4.63
2022-10-29T02:00:04.286Z,4.28
2022-10-29T02:01:20.094Z,4.60
2022-10-29T02:02:29.231Z,4.97
2022-10-29T02:03:42.646Z,4.63
2022-10-29T02:04:57.997Z,4.57
2022-10-29T02:06:10.547Z,4.40
2022-10-29T02:07:20.489Z,4.38
2022-10-29T02:08:31.835Z,4.93
2022-10-29T02:10:45.067Z,4.60
2022-10-29T02:11:52.669Z,5.30
2022-10-29T02:12:55.436Z,5.47
2022-10-29T02:14:02.132Z,5.35
2022-10-29T02:15:07.835Z,5.38
2022-10-29T02:16:11.801Z,5.25
2022-10-29T02:17:13.306Z,6.05
2022-10-29T02:18:16.315Z,5.45
2022-10-29T02:19:17.956Z,5.32
2022-10-29T02:20:19.491Z,5.20
2022-10-29T02:21:21.115Z,6.25
2022-10-29T02:22:22.620Z,5.18
2022-10-29T02:23:24.082Z,5.50
2022-10-29T02:24:25.798Z,5.50
2022-10-29T02:25:27.681Z,5.60
2022-10-29T02:26:29.156Z,5.50
2022-10-29T02:27:30.571Z,5.63
2022-10-29T02:28:32.005Z,5.05
2022-10-29T02:29:33.935Z,6.10
2022-10-29T02:30:35.519Z,4.75
2022-10-29T02:31:38.300Z,5.60
2022-10-29T02:32:39.772Z,5.35
2022-10-29T02:33:41.257Z,5.45
2022-10-29T02:34:42.716Z,5.40
2022-10-29T02:35:44.163Z,5.80
2022-10-29T02:36:45.653Z,5.90
2022-10-29T02:37:47.081Z,6.05
2022-10-29T02:38:48.505Z,5.30
2022-10-29T02:39:49.961Z,5.78
2022-10-29T02:40:51.417Z,5.45
2022-10-29T02:41:52.864Z,5.32
2022-10-29T02:42:54.536Z,5.38
2022-10-29T02:43:56.219Z,5.57
2022-10-29T02:44:57.636Z,5.40
2022-10-29T02:46:10.584Z,5.85
2022-10-29T02:47:13.458Z,4.97
2022-10-29T02:48:14.860Z,5.60
2022-10-29T02:49:16.309Z,5.50
2022-10-29T02:50:17.766Z,5.38
2022-10-29T02:51:19.480Z,5.90
2022-10-29T02:52:20.971Z,5.53
2022-10-29T02:53:22.438Z,5.88
2022-10-29T02:54:23.846Z,5.93
2022-10-29T02:55:25.303Z,6.10
2022-10-29T02:56:26.754Z,5.60
2022-10-29T02:57:28.200Z,5.80
2022-10-29T02:58:29.615Z,6.00
2022-10-29T02:59:31.072Z,5.85
2022-10-29T03:00:32.499Z,5.70
2022-10-29T03:01:34.077Z,5.70
2022-10-29T03:02:37.108Z,5.78
2022-10-29T03:03:38.658Z,5.55
2022-10-29T03:04:40.088Z,5.63
2022-10-29T03:05:46.481Z,6.22
2022-10-29T03:06:50.405Z,5.85
2022-10-29T03:07:52.298Z,5.90
2022-10-29T03:08:53.803Z,5.68
2022-10-29T03:09:55.268Z,5.82
2022-10-29T03:10:56.694Z,5.82
2022-10-29T03:11:58.130Z,5.30
2022-10-29T03:12:59.700Z,5.80
2022-10-29T03:14:01.244Z,5.93
2022-10-29T03:15:02.862Z,5.90
2022-10-29T03:16:05.374Z,5.70
2022-10-29T03:17:06.864Z,5.85
2022-10-29T03:18:09.703Z,5.55
2022-10-29T03:19:11.182Z,5.63
2022-10-29T03:20:12.628Z,6.28
2022-10-29T03:21:14.103Z,5.75
2022-10-29T03:22:15.576Z,5.90
2022-10-29T03:23:17.027Z,5.10
2022-10-29T03:24:18.506Z,5.80
2022-10-29T03:25:19.958Z,5.20
2022-10-29T03:26:21.444Z,5.75
2022-10-29T03:27:22.940Z,5.72
2022-10-29T03:28:25.689Z,5.68
2022-10-29T03:29:27.124Z,5.25
2022-10-29T03:30:28.539Z,5.25
2022-10-29T03:31:29.975Z,5.72
2022-10-29T03:32:31.425Z,6.03
2022-10-29T03:33:35.685Z,5.35
2022-10-29T03:34:37.137Z,5.30
2022-10-29T03:35:38.655Z,5.00
2022-10-29T03:36:40.175Z,5.30
2022-10-29T03:37:41.731Z,4.97
2022-10-29T03:38:43.197Z,5.65
2022-10-29T03:39:44.739Z,5.13
2022-10-29T03:40:46.190Z,5.05
2022-10-29T03:41:47.610Z,4.57
2022-10-29T03:42:49.038Z,4.85
2022-10-29T03:43:51.046Z,4.60
2022-10-29T03:44:52.667Z,4.60
2022-10-29T03:45:55.824Z,4.90
2022-10-29T03:46:57.557Z,5.20
2022-10-29T03:47:59.106Z,4.72
2022-10-29T03:49:02.236Z,5.20
2022-10-29T03:50:04.510Z,4.88
2022-10-29T03:51:06.759Z,4.72
2022-10-29T03:52:08.240Z,4.53
2022-10-29T03:53:10.667Z,5.60
2022-10-29T03:54:12.170Z,4.90
2022-10-29T03:55:13.634Z,4.72
2022-10-29T03:56:15.256Z,5.35
2022-10-29T03:57:16.703Z,5.15
2022-10-29T03:58:18.500Z,5.18
2022-10-29T03:59:19.964Z,4.93
2022-10-29T04:00:21.494Z,4.90
2022-10-29T04:01:23.616Z,5.22
2022-10-29T04:02:25.385Z,4.40
2022-10-29T04:03:28.386Z,4.90
2022-10-29T04:04:31.174Z,4.63
2022-10-29T04:05:32.607Z,5.20
2022-10-29T04:06:34.065Z,5.40
2022-10-29T04:07:35.520Z,5.00
2022-10-29T04:08:37.322Z,5.15
2022-10-29T04:09:38.786Z,4.72
2022-10-29T04:10:45.633Z,5.20
2022-10-29T04:11:47.083Z,4.80
2022-10-29T04:12:48.637Z,4.75
2022-10-29T04:13:52.054Z,4.80
2022-10-29T04:14:53.575Z,5.05
2022-10-29T04:15:55.609Z,5.32
2022-10-29T04:16:57.759Z,5.10
2022-10-29T04:17:59.516Z,4.88
2022-10-29T04:19:01.229Z,5.07
2022-10-29T04:20:09.969Z,5.60
2022-10-29T04:29:31.847Z,4.55
2022-10-29T04:30:33.389Z,4.45
2022-10-29T04:31:35.084Z,4.75
2022-10-29T04:32:36.523Z,4.78
2022-10-29T04:33:37.943Z,4.72
2022-10-29T04:34:39.372Z,4.78
2022-10-29T04:35:42.195Z,5.30
2022-10-29T04:36:43.692Z,5.03
2022-10-29T04:37:45.181Z,4.55
2022-10-29T04:38:46.763Z,5.10
2022-10-29T04:39:48.192Z,5.38
2022-10-29T04:40:50.158Z,5.15
2022-10-29T04:41:51.595Z,6.15
2022-10-29T04:42:53.231Z,5.43
2022-10-29T04:43:54.751Z,5.13
2022-10-29T04:44:56.202Z,5.43
2022-10-29T04:45:59.089Z,5.90
2022-10-29T04:47:00.531Z,5.45
2022-10-29T04:48:03.299Z,5.72
2022-10-29T04:49:04.804Z,5.38
2022-10-29T04:50:06.764Z,5.53
2022-10-29T04:51:19.337Z,5.85
2022-10-29T04:52:20.808Z,5.97
2022-10-29T04:53:22.455Z,5.68
2022-10-29T04:54:23.924Z,4.97
2022-10-29T04:55:25.651Z,5.63
2022-10-29T04:56:27.088Z,5.97
2022-10-29T04:57:28.530Z,6.78
2022-10-29T04:58:29.971Z,5.63
2022-10-29T04:59:31.455Z,5.93
2022-10-29T05:00:33.440Z,5.95
2022-10-29T05:02:37.272Z,5.53
2022-10-29T05:03:38.716Z,5.78
2022-10-29T05:04:40.150Z,5.75
2022-10-29T05:05:41.646Z,6.28
2022-10-29T05:06:44.431Z,6.05
2022-10-29T05:07:46.267Z,6.00
2022-10-29T05:08:47.674Z,6.18
2022-10-29T05:09:49.131Z,6.20
2022-10-29T05:10:50.808Z,6.30
2022-10-29T05:11:52.271Z,5.90
2022-10-29T05:12:58.747Z,5.85
2022-10-29T05:14:00.308Z,5.20
2022-10-29T05:15:01.750Z,5.70
2022-10-29T05:16:03.415Z,5.78
2022-10-29T05:17:04.930Z,5.85
2022-10-29T05:18:07.134Z,6.22
2022-10-29T05:19:08.560Z,6.10
2022-10-29T05:20:10.958Z,6.22
2022-10-29T05:21:12.418Z,5.90
2022-10-29T05:22:15.176Z,5.78
2022-10-29T05:23:16.594Z,5.53
2022-10-29T05:24:18.003Z,5.63
2022-10-29T05:25:19.424Z,5.45
2022-10-29T05:26:20.842Z,5.85
2022-10-29T05:27:22.282Z,5.63
2022-10-29T05:28:24.516Z,5.50
2022-10-29T05:29:25.927Z,5.18
2022-10-29T05:30:27.346Z,5.40
2022-10-29T05:31:28.799Z,5.28
2022-10-29T05:32:30.494Z,5.20
2022-10-29T05:33:32.001Z,5.45
2022-10-29T05:34:33.432Z,6.00
2022-10-29T05:35:34.995Z,5.85
2022-10-29T05:36:36.427Z,5.40
2022-10-29T05:37:39.242Z,5.50
2022-10-29T05:38:40.729Z,4.70
2022-10-29T05:39:42.182Z,6.13
2022-10-29T05:40:44.216Z,5.10
2022-10-29T05:41:46.503Z,5.32
2022-10-29T05:42:48.014Z,4.78
2022-10-29T05:43:49.859Z,5.20
2022-10-29T05:44:51.304Z,5.40
2022-10-29T05:45:52.774Z,5.10
2022-10-29T05:46:54.200Z,5.43
2022-10-29T05:47:56.282Z,5.60
2022-10-29T05:48:58.082Z,4.90
2022-10-29T05:49:59.660Z,4.70
2022-10-29T05:51:01.122Z,4.70
2022-10-29T05:52:02.712Z,5.13
2022-10-29T05:53:07.226Z,5.30
2022-10-29T05:54:08.620Z,5.63
2022-10-29T05:55:10.044Z,5.65
2022-10-29T05:56:11.514Z,4.60
2022-10-29T05:57:12.954Z,4.88
2022-10-29T05:58:14.399Z,4.88
2022-10-29T05:59:15.891Z,4.88
2022-10-29T06:00:17.717Z,5.13
2022-10-29T06:01:19.179Z,5.38
2022-10-29T06:02:20.833Z,6.00
2022-10-29T06:03:22.953Z,5.57
2022-10-29T06:04:24.416Z,5.88
2022-10-29T06:05:26.123Z,5.53
2022-10-29T06:06:27.713Z,5.78
2022-10-29T06:07:29.182Z,6.72
2022-10-29T06:08:32.094Z,6.07
2022-10-29T06:09:33.703Z,6.03
2022-10-29T06:10:35.818Z,5.97
2022-10-29T06:11:37.229Z,6.45
2022-10-29T06:12:38.697Z,7.00
2022-10-29T06:13:40.156Z,6.40
2022-10-29T06:14:41.600Z,6.63
2022-10-29T06:15:43.143Z,6.10
2022-10-29T06:16:44.548Z,5.93
2022-10-29T06:17:47.038Z,6.70
2022-10-29T06:18:48.527Z,6.15
2022-10-29T06:19:50.104Z,7.13
2022-10-29T06:20:51.534Z,6.25
2022-10-29T06:21:55.218Z,6.38
2022-10-29T06:22:59.511Z,6.60
2022-10-29T06:24:02.616Z,6.70
2022-10-29T06:25:05.002Z,6.95
2022-10-29T06:26:06.422Z,6.32
2022-10-29T06:27:07.907Z,7.07
2022-10-29T06:28:11.032Z,6.68
2022-10-29T06:29:12.473Z,6.70
2022-10-29T06:30:14.028Z,6.57
2022-10-29T06:31:15.516Z,6.35
2022-10-29T06:32:16.991Z,6.70
2022-10-29T06:33:19.264Z,5.95
2022-10-29T06:34:20.710Z,5.82
2022-10-29T06:35:22.620Z,6.50
2022-10-29T06:36:24.118Z,6.63
2022-10-29T06:37:25.552Z,5.95
2022-10-29T06:38:26.998Z,6.68
2022-10-29T06:39:29.772Z,6.13
2022-10-29T06:40:31.197Z,5.85
2022-10-29T06:41:32.632Z,6.13
2022-10-29T06:42:34.301Z,6.25
2022-10-29T06:43:35.777Z,6.40
2022-10-29T06:44:37.219Z,6.03
2022-10-29T06:45:38.774Z,6.15
2022-10-29T06:46:40.202Z,6.13
2022-10-29T06:47:42.580Z,6.72
2022-10-29T06:48:44.052Z,6.15
2022-10-29T06:49:45.476Z,5.95
2022-10-29T06:50:46.948Z,6.05
2022-10-29T06:51:48.681Z,6.00
2022-10-29T06:52:57.897Z,6.05
2022-10-29T06:53:59.749Z,6.07
2022-10-29T06:55:03.670Z,6.15
2022-10-29T06:56:05.293Z,6.07
2022-10-29T06:57:06.687Z,5.45
2022-10-29T06:58:11.670Z,5.20
2022-10-29T06:59:13.115Z,5.80
2022-10-29T07:00:14.804Z,5.70
2022-10-29T07:01:16.293Z,5.68
2022-10-29T07:02:19.190Z,5.35
2022-10-29T07:03:21.220Z,5.57
2022-10-29T07:04:22.735Z,5.80
2022-10-29T07:05:24.523Z,5.22
2022-10-29T07:06:26.380Z,6.55
2022-10-29T07:07:28.084Z,5.57
2022-10-29T07:08:29.521Z,5.70
2022-10-29T07:09:30.976Z,6.40
2022-10-29T07:10:34.158Z,6.03
2022-10-29T07:11:35.610Z,5.50
2022-10-29T07:12:39.614Z,5.47
2022-10-29T07:13:41.027Z,5.82
2022-10-29T07:14:42.479Z,5.60
2022-10-29T07:15:43.892Z,5.57
2022-10-29T07:16:45.329Z,5.85
2022-10-29T07:17:54.932Z,5.32
2022-10-29T07:18:56.523Z,5.60
2022-10-29T07:19:58.023Z,5.50
2022-10-29T07:21:02.190Z,5.88
2022-10-29T07:22:03.670Z,5.32
2022-10-29T07:23:05.401Z,5.60
2022-10-29T07:24:07.608Z,6.20
2022-10-29T07:25:09.371Z,6.00
2022-10-29T07:26:12.158Z,6.20
2022-10-29T07:27:13.672Z,6.25
2022-10-29T07:28:16.775Z,5.85
2022-10-29T07:29:18.237Z,5.50
2022-10-29T07:30:20.256Z,5.75
2022-10-29T07:31:21.691Z,5.43
2022-10-29T07:32:23.726Z,5.88
2022-10-29T07:33:25.199Z,5.85
2022-10-29T07:34:26.606Z,5.95
2022-10-29T07:35:28.074Z,5.28
2022-10-29T07:36:29.989Z,5.90
2022-10-29T07:37:31.419Z,5.65
2022-10-29T07:38:32.847Z,4.90
2022-10-29T07:39:34.363Z,5.65
2022-10-29T07:40:36.172Z,5.07
2022-10-29T07:41:38.963Z,5.18
2022-10-29T07:42:40.413Z,4.57
2022-10-29T07:43:41.871Z,4.35
2022-10-29T07:44:43.309Z,4.60
2022-10-29T07:45:46.257Z,4.72
2022-10-29T07:46:47.707Z,5.10
2022-10-29T07:47:49.207Z,4.90
2022-10-29T07:48:50.651Z,5.25
2022-10-29T07:49:52.084Z,5.15
2022-10-29T07:50:53.586Z,4.60
2022-10-29T07:51:55.031Z,4.43
2022-10-29T07:52:59.219Z,12.48
2022-10-29T07:54:00.952Z,8.63
2022-10-29T07:55:02.408Z,5.10
2022-10-29T07:56:04.211Z,4.32
2022-10-29T07:57:06.953Z,4.10
2022-10-29T07:58:12.222Z,4.55
2022-10-29T07:59:13.657Z,4.97
2022-10-29T08:00:15.725Z,5.25
2022-10-29T08:01:17.398Z,4.68
2022-10-29T08:02:18.974Z,4.88
2022-10-29T08:03:20.782Z,4.72
2022-10-29T08:04:22.223Z,4.03
2022-10-29T08:05:25.017Z,4.43
2022-10-29T08:06:26.460Z,4.13
2022-10-29T08:07:27.952Z,4.65
2022-10-29T08:08:29.398Z,4.25
2022-10-29T08:09:30.826Z,4.43
2022-10-29T08:10:33.508Z,4.88
2022-10-29T08:11:35.073Z,4.35
2022-10-29T08:12:37.873Z,4.20
2022-10-29T08:13:39.295Z,4.70
2022-10-29T08:14:40.760Z,4.60
2022-10-29T08:15:45.848Z,3.90
2022-10-29T08:16:47.445Z,4.20
2022-10-29T08:17:50.088Z,3.88
2022-10-29T08:18:51.558Z,4.22
2022-10-29T08:19:53.119Z,4.45
2022-10-29T08:20:54.571Z,4.13
2022-10-29T08:21:56.135Z,4.00
2022-10-29T08:23:00.013Z,7.60
2022-10-29T08:24:01.962Z,4.60
2022-10-29T08:25:03.944Z,10.85
2022-10-29T08:26:05.760Z,4.43
2022-10-29T08:27:07.232Z,4.70
2022-10-29T08:28:11.693Z,4.90
2022-10-29T08:29:15.196Z,5.50
2022-10-29T08:30:16.650Z,4.20
2022-10-29T08:31:18.069Z,5.03
2022-10-29T08:32:19.624Z,4.45
2022-10-29T08:33:21.041Z,5.00
2022-10-29T08:34:22.455Z,4.20
2022-10-29T08:35:23.999Z,4.80
2022-10-29T08:36:25.413Z,4.57
2022-10-29T08:37:27.023Z,4.68
2022-10-29T08:38:28.487Z,4.05
2022-10-29T08:39:29.914Z,3.95
2022-10-29T08:40:38.042Z,4.40
2022-10-29T08:41:51.935Z,4.78
2022-10-29T08:43:08.242Z,4.15
2022-10-29T08:44:36.462Z,4.00
2022-10-29T08:45:45.443Z,3.80
2022-10-29T08:46:49.500Z,4.18
2022-10-29T08:48:11.191Z,3.75
2022-10-29T08:50:24.802Z,5.03
2022-10-29T08:51:30.499Z,4.78
2022-10-29T08:52:36.863Z,4.20
2022-10-29T08:53:41.895Z,5.40
2022-10-29T08:54:45.748Z,9.77
2022-10-29T08:55:47.381Z,5.03
2022-10-29T08:56:51.442Z,5.50
2022-10-29T08:57:56.706Z,6.13
2022-10-29T08:59:05.226Z,5.88
2022-10-29T09:00:14.987Z,5.13
2022-10-29T09:01:20.535Z,5.00
2022-10-29T09:02:22.155Z,5.60
2022-10-29T09:03:26.686Z,5.82
2022-10-29T09:04:34.067Z,5.20
2022-10-29T09:05:50.373Z,4.93
2022-10-29T09:07:07.106Z,5.28
2022-10-29T09:08:26.411Z,5.63
2022-10-29T09:09:33.821Z,4.63
2022-10-29T09:10:41.234Z,4.57
2022-10-29T09:11:53.667Z,4.28
2022-10-29T09:13:15.940Z,5.03
2022-10-29T09:14:30.906Z,4.75
2022-10-29T09:16:05.455Z,4.53
2022-10-29T09:17:19.270Z,4.80
2022-10-29T09:18:31.272Z,4.28
2022-10-29T09:20:18.126Z,3.75
2022-10-29T09:21:31.368Z,4.60
2022-10-29T09:22:40.434Z,4.35
2022-10-29T09:23:55.792Z,4.63
2022-10-29T09:25:10.182Z,4.25
2022-10-29T09:26:15.960Z,4.13
2022-10-29T09:27:24.349Z,4.35
2022-10-29T09:28:36.614Z,4.90
2022-10-29T09:29:57.296Z,4.60
2022-10-29T09:31:10.777Z,5.15
2022-10-29T09:32:17.141Z,4.90
2022-10-29T09:33:21.589Z,4.80
2022-10-29T09:34:29.215Z,4.43
2022-10-29T09:35:38.861Z,4.53
2022-10-29T09:36:40.704Z,5.55
2022-10-29T09:37:48.496Z,4.40
2022-10-29T09:38:56.201Z,4.65
2022-10-29T09:39:59.048Z,4.65
2022-10-29T09:41:02.721Z,4.72
2022-10-29T09:42:11.210Z,4.50
2022-10-29T09:43:24.124Z,5.15
2022-10-29T09:44:35.391Z,4.72
2022-10-29T09:45:43.287Z,5.57
2022-10-29T09:46:57.234Z,4.35
2022-10-29T09:48:05.875Z,4.35
2022-10-29T09:49:21.420Z,3.95
2022-10-29T09:50:30.127Z,4.00
2022-10-29T09:51:42.367Z,3.70
2022-10-29T09:52:45.807Z,4.22
2022-10-29T09:53:47.296Z,4.00
2022-10-29T09:54:50.803Z,3.88
2022-10-29T09:55:52.307Z,4.25
2022-10-29T09:56:56.136Z,4.05
2022-10-29T09:57:58.096Z,3.80
2022-10-29T09:59:11.495Z,4.32
2022-10-29T10:00:20.296Z,3.97
2022-10-29T10:01:22.001Z,3.53
2022-10-29T10:02:32.325Z,3.67
2022-10-29T10:03:37.556Z,3.75
2022-10-29T10:04:43.997Z,4.15
2022-10-29T10:06:07.388Z,3.83
2022-10-29T10:07:10.967Z,3.80
2022-10-29T10:08:13.815Z,4.60
2022-10-29T10:09:15.256Z,4.63
2022-10-29T10:10:22.341Z,3.78
2022-10-29T10:11:24.624Z,3.70
2022-10-29T10:12:28.119Z,4.10
2022-10-29T10:13:31.679Z,4.00
2022-10-29T10:14:33.172Z,4.20
2022-10-29T10:15:36.527Z,3.85
2022-10-29T10:16:38.215Z,3.95
2022-10-29T10:18:01.773Z,3.33
2022-10-29T10:19:03.471Z,3.92
2022-10-29T10:20:26.526Z,3.60
2022-10-29T10:21:29.491Z,3.40
2022-10-29T10:22:30.980Z,3.03
2022-10-29T10:23:42.635Z,3.80
2022-10-29T10:24:44.105Z,3.85
2022-10-29T10:25:45.695Z,3.50
2022-10-29T10:26:47.207Z,3.63
2022-10-29T10:27:48.614Z,3.88
2022-10-29T10:29:04.482Z,3.65
2022-10-29T10:30:13.888Z,3.42
2022-10-29T10:31:16.346Z,3.63
2022-10-29T10:32:18.634Z,3.10
2022-10-29T10:33:26.025Z,3.35
2022-10-29T10:34:38.075Z,3.20
2022-10-29T10:35:39.491Z,3.25
2022-10-29T10:36:44.013Z,3.72
2022-10-29T10:37:45.576Z,3.53
2022-10-29T10:38:49.735Z,3.50
2022-10-29T10:39:56.557Z,3.65
2022-10-29T10:41:05.234Z,3.97
2022-10-29T10:42:16.874Z,4.22
2022-10-29T10:43:21.919Z,3.20
2022-10-29T10:44:24.124Z,3.20
2022-10-29T10:45:30.871Z,3.40
2022-10-29T10:46:35.339Z,2.90
2022-10-29T10:47:40.994Z,3.20
2022-10-29T10:48:43.935Z,3.25
2022-10-29T10:49:45.753Z,3.30
2022-10-29T10:50:47.593Z,3.20
2022-10-29T10:51:50.967Z,3.58
2022-10-29T10:52:54.683Z,3.00
2022-10-29T10:53:57.269Z,3.85
2022-10-29T10:55:01.243Z,3.67
2022-10-29T10:56:03.088Z,3.30
2022-10-29T10:57:18.902Z,3.20
2022-10-29T10:58:27.208Z,3.00
2022-10-29T10:59:42.294Z,3.25
2022-10-29T11:00:48.030Z,3.47
2022-10-29T11:01:51.277Z,3.20
2022-10-29T11:02:57.929Z,2.92
2022-10-29T11:04:13.294Z,3.38
2022-10-29T11:05:18.246Z,3.03
2022-10-29T11:06:25.446Z,3.05
2022-10-29T11:07:32.710Z,2.70
2022-10-29T11:08:40.429Z,3.30
2022-10-29T11:09:46.490Z,3.53
2022-10-29T11:10:52.386Z,3.42
2022-10-29T11:11:59.534Z,2.80
2022-10-29T11:13:04.958Z,3.25
2022-10-29T11:14:13.506Z,3.38
2022-10-29T11:15:19.569Z,3.85
2022-10-29T11:16:26.993Z,10.15
2022-10-29T11:17:35.571Z,2.85
2022-10-29T11:18:41.563Z,3.40
2022-10-29T11:19:50.057Z,3.30
2022-10-29T11:21:03.021Z,2.95
2022-10-29T11:22:18.324Z,3.53
2022-10-29T11:23:34.520Z,3.97
2022-10-29T11:24:44.936Z,3.55
2022-10-29T11:25:51.077Z,3.57
2022-10-29T11:26:58.131Z,3.05
2022-10-29T11:28:06.959Z,3.83
2022-10-29T11:29:17.904Z,3.90
2022-10-29T11:30:20.105Z,4.50
2022-10-29T11:31:27.357Z,3.10
2022-10-29T11:32:38.648Z,3.20
2022-10-29T11:34:53.875Z,3.78
2022-10-29T11:36:02.070Z,3.22
2022-10-29T11:37:10.582Z,3.35
2022-10-29T11:38:18.870Z,3.03
2022-10-29T11:39:26.777Z,3.10
2022-10-29T11:40:37.340Z,2.70
2022-10-29T11:41:44.295Z,3.00
2022-10-29T11:42:45.984Z,2.95
2022-10-29T11:43:47.905Z,3.10
2022-10-29T11:44:49.477Z,3.10
2022-10-29T11:45:58.296Z,3.08
2022-10-29T11:47:23.269Z,3.00
2022-10-29T11:48:36.858Z,3.13
2022-10-29T11:49:53.841Z,3.33
2022-10-29T11:50:58.837Z,4.00
2022-10-29T11:52:08.899Z,3.53
2022-10-29T11:53:26.342Z,3.25
2022-10-29T11:54:43.486Z,3.72
2022-10-29T11:55:56.276Z,4.28
2022-10-29T11:57:02.779Z,3.33
2022-10-29T11:58:16.159Z,4.95
2022-10-29T11:59:26.678Z,3.97
2022-10-29T12:00:34.496Z,3.15
2022-10-29T12:01:44.116Z,3.30
2022-10-29T12:03:12.875Z,3.67
2022-10-29T12:04:25.748Z,3.35
2022-10-29T12:05:34.823Z,3.35
2022-10-29T12:06:42.265Z,18.92
2022-10-29T12:08:03.672Z,3.90
2022-10-29T12:09:32.198Z,3.28
2022-10-29T12:10:44.153Z,3.65
2022-10-29T12:11:58.739Z,3.60
2022-10-29T12:13:09.982Z,3.35
2022-10-29T12:15:26.212Z,2.80
2022-10-29T12:16:37.196Z,3.40
2022-10-29T12:17:46.683Z,3.58
2022-10-29T12:18:55.308Z,3.33
2022-10-29T12:20:01.117Z,3.45
2022-10-29T12:21:09.496Z,3.10
2022-10-29T12:22:25.072Z,2.88
2022-10-29T12:23:35.381Z,3.30
2022-10-29T12:25:04.035Z,2.85
2022-10-29T12:26:11.991Z,3.15
2022-10-29T12:27:19.522Z,3.88
2022-10-29T12:28:30.004Z,4.20
2022-10-29T12:29:39.046Z,3.17
2022-10-29T12:30:48.494Z,3.50
2022-10-29T12:31:57.030Z,3.38
2022-10-29T12:33:07.217Z,3.63
2022-10-29T12:34:16.109Z,3.17
2022-10-29T12:35:26.466Z,3.17
2022-10-29T12:36:35.323Z,3.20
2022-10-29T12:37:44.008Z,3.28
2022-10-29T12:38:52.287Z,3.47
2022-10-29T12:39:59.046Z,3.13
2022-10-29T12:41:04.800Z,3.20
2022-10-29T12:42:14.315Z,3.10
2022-10-29T12:43:23.299Z,3.03
2022-10-29T12:44:34.675Z,3.15
2022-10-29T12:46:19.073Z,2.85
2022-10-29T12:47:12.687Z,2.55
2022-10-29T12:48:21.356Z,2.95
2022-10-29T12:49:32.765Z,2.95
2022-10-29T12:50:44.000Z,2.60
2022-10-29T12:51:53.692Z,2.92
2022-10-29T12:53:03.063Z,3.55
2022-10-29T12:54:27.549Z,2.47
2022-10-29T12:55:30.539Z,2.50
2022-10-29T12:56:32.554Z,3.22
2022-10-29T12:57:35.709Z,3.00
2022-10-29T12:58:50.404Z,2.70
2022-10-29T12:59:51.882Z,2.25
2022-10-29T13:00:53.388Z,2.80
2022-10-29T13:02:11.033Z,2.58
2022-10-29T13:03:58.624Z,3.33
2022-10-29T13:05:19.153Z,3.67
2022-10-29T13:06:43.888Z,4.07
2022-10-29T13:08:18.924Z,4.70
2022-10-29T13:09:23.516Z,4.10
2022-10-29T13:10:56.239Z,4.03
2022-10-29T13:11:59.477Z,3.85
2022-10-29T13:13:02.994Z,3.72
2022-10-29T13:14:05.589Z,3.53
2022-10-29T13:15:11.884Z,3.00
2022-10-29T13:16:16.687Z,3.38
2022-10-29T13:17:28.474Z,3.47
2022-10-29T13:18:44.293Z,3.38
2022-10-29T13:19:49.592Z,3.50
2022-10-29T13:20:52.566Z,4.22
2022-10-29T13:21:59.203Z,4.35
2022-10-29T13:23:03.888Z,3.45
2022-10-29T13:24:16.085Z,3.60
2022-10-29T13:25:52.372Z,4.57
2022-10-29T13:27:02.808Z,3.90
2022-10-29T13:28:50.719Z,3.63
2022-10-29T13:30:18.405Z,3.85
2022-10-29T13:31:48.803Z,3.30
2022-10-29T13:32:50.277Z,3.20
2022-10-29T13:33:51.757Z,3.25
2022-10-29T13:34:55.613Z,3.45
2022-10-29T13:35:58.149Z,3.25
2022-10-29T13:37:33.044Z,3.30
2022-10-29T13:38:51.936Z,3.55
2022-10-29T13:40:48.914Z,3.70
2022-10-29T13:41:53.814Z,3.88
2022-10-29T13:43:00.102Z,3.58
2022-10-29T13:44:05.350Z,4.00
2022-10-29T13:45:11.756Z,3.30
2022-10-29T13:46:46.113Z,3.88
2022-10-29T13:47:48.506Z,3.70
2022-10-29T13:48:52.049Z,3.80
2022-10-29T13:49:53.765Z,3.97
2022-10-29T13:50:58.482Z,4.00
2022-10-29T13:52:02.814Z,4.03
2022-10-29T13:53:13.371Z,4.90
2022-10-29T13:55:33.324Z,4.40
2022-10-29T13:56:41.569Z,4.40
2022-10-29T13:57:58.569Z,4.10
2022-10-29T13:59:02.783Z,4.57
2022-10-29T14:00:07.322Z,4.38
2022-10-29T14:01:14.707Z,4.80
2022-10-29T14:02:25.877Z,4.55
2022-10-29T14:03:35.470Z,4.05
2022-10-29T14:04:40.985Z,4.00
2022-10-29T14:05:47.062Z,4.72
2022-10-29T14:06:51.486Z,4.22
2022-10-29T14:07:55.353Z,5.32
2022-10-29T14:09:09.635Z,3.97
2022-10-29T14:10:21.623Z,4.53
2022-10-29T14:11:27.954Z,4.82
2022-10-29T14:12:31.532Z,5.13
2022-10-29T14:13:41.006Z,4.18
2022-10-29T14:14:52.031Z,4.68
2022-10-29T14:16:09.301Z,4.72
2022-10-29T14:17:12.964Z,4.50
2022-10-29T14:18:17.888Z,4.43
2022-10-29T14:19:20.799Z,4.85
2022-10-29T14:20:25.514Z,4.82
2022-10-29T14:21:29.413Z,4.28
2022-10-29T14:22:34.815Z,4.47
2022-10-29T14:23:36.257Z,4.65
2022-10-29T14:24:37.830Z,4.57
2022-10-29T14:25:39.235Z,5.03
2022-10-29T14:26:42.330Z,4.40
2022-10-29T14:27:43.805Z,4.50
2022-10-29T14:28:46.599Z,4.43
2022-10-29T14:29:50.474Z,5.07
2022-10-29T14:31:05.965Z,4.93
2022-10-29T14:32:11.311Z,4.63
2022-10-29T14:33:24.055Z,4.60
2022-10-29T14:34:27.427Z,5.18
2022-10-29T14:35:29.362Z,4.57
2022-10-29T14:36:36.625Z,4.35
2022-10-29T14:37:41.362Z,5.25
2022-10-29T14:38:46.729Z,5.05
2022-10-29T14:39:59.466Z,4.72
2022-10-29T14:41:01.462Z,4.90
2022-10-29T14:42:03.176Z,5.10
2022-10-29T14:43:04.686Z,4.57
2022-10-29T14:44:15.033Z,4.97
2022-10-29T14:45:19.692Z,5.25
2022-10-29T14:46:24.971Z,5.75
2022-10-29T14:47:33.274Z,5.60
2022-10-29T14:48:36.307Z,5.20